sensor_id;sensor_type;location;lat;lon;timestamp;noise_LAeq;noise_LA_min;noise_LA_max;noise_LA01;noise_LA95
78273;Laerm;67530;52.282;5.972;2023-03-08T00:00:14;57.2;53.9;58.6;;
78273;Laerm;67530;52.282;5.972;2023-03-08T00:00:33;57.1;54.7;58.7;;
78273;Laerm;67530;52.282;5.972;2023-03-08T00:00:53;57.1;54;58.2;;
78273;Laerm;67530;52.282;5.972;2023-03-08T00:01:14;57.1;54.4;58.4;;
78273;Laerm;67530;52.282;5.972;2023-03-08T00:01:33;56.9;53.7;58.1;;
78273;Laerm;67530;52.282;5.972;2023-03-08T00:01:54;56.6;53.9;57.7;;
78273;Laerm;67530;52.282;5.972;2023-03-08T00:02:14;56.5;54.3;57.4;;
78273;Laerm;67530;52.282;5.972;2023-03-08T00:02:34;56.2;54.1;57.3;;
78273;Laerm;67530;52.282;5.972;2023-03-08T00:02:54;56.3;54.1;57.3;;
78273;Laerm;67530;52.282;5.972;2023-03-08T00:03:14;56.3;53.3;57.6;;
78273;Laerm;67530;52.282;5.972;2023-03-08T00:03:34;56.4;54;57.7;;
78273;Laerm;67530;52.282;5.972;2023-03-08T00:03:54;56.8;54.5;57.9;;
78273;Laerm;67530;52.282;5.972;2023-03-08T00:04:14;56.9;53.6;57.9;;
78273;Laerm;67530;52.282;5.972;2023-03-08T00:04:34;56.8;53.6;58;;
78273;Laerm;67530;52.282;5.972;2023-03-08T00:04:54;56.9;54.1;58.2;;
78273;Laerm;67530;52.282;5.972;2023-03-08T00:05:14;56.7;53.6;57.9;;
78273;Laerm;67530;52.282;5.972;2023-03-08T00:05:36;56.6;54.1;57.6;;
78273;Laerm;67530;52.282;5.972;2023-03-08T00:05:54;56.5;53.6;57.7;;
78273;Laerm;67530;52.282;5.972;2023-03-08T00:06:14;56.4;53.9;57.4;;
78273;Laerm;67530;52.282;5.972;2023-03-08T00:06:34;56.4;53.1;57.5;;
78273;Laerm;67530;52.282;5.972;2023-03-08T00:06:54;56.3;54.3;57.3;;
78273;Laerm;67530;52.282;5.972;2023-03-08T00:07:14;56.5;53.4;57.6;;
78273;Laerm;67530;52.282;5.972;2023-03-08T00:07:35;56.6;53.6;57.7;;
78273;Laerm;67530;52.282;5.972;2023-03-08T00:07:55;56.6;53.2;57.5;;
78273;Laerm;67530;52.282;5.972;2023-03-08T00:08:15;55.7;52.2;57.6;;
78273;Laerm;67530;52.282;5.972;2023-03-08T00:08:35;56.4;54.1;57.3;;
78273;Laerm;67530;52.282;5.972;2023-03-08T00:08:55;56.1;52.7;57.4;;
78273;Laerm;67530;52.282;5.972;2023-03-08T00:09:15;55.9;53.6;56.9;;
78273;Laerm;67530;52.282;5.972;2023-03-08T00:09:36;55.9;53.5;57.2;;
78273;Laerm;67530;52.282;5.972;2023-03-08T00:09:55;55.8;53.9;56.8;;
78273;Laerm;67530;52.282;5.972;2023-03-08T00:10:15;55.5;53.2;56.7;;
78273;Laerm;67530;52.282;5.972;2023-03-08T00:10:35;55.6;52.9;56.9;;
78273;Laerm;67530;52.282;5.972;2023-03-08T00:10:55;55.5;52.7;56.5;;
78273;Laerm;67530;52.282;5.972;2023-03-08T00:11:15;55.4;52.7;56.7;;
78273;Laerm;67530;52.282;5.972;2023-03-08T00:11:35;55.5;53.1;57;;
78273;Laerm;67530;52.282;5.972;2023-03-08T00:11:55;55.7;52.3;57.1;;
78273;Laerm;67530;52.282;5.972;2023-03-08T00:12:15;55.8;53.3;56.7;;
78273;Laerm;67530;52.282;5.972;2023-03-08T00:12:36;55.7;51.6;56.7;;
78273;Laerm;67530;52.282;5.972;2023-03-08T00:12:56;55.6;53.2;56.7;;
78273;Laerm;67530;52.282;5.972;2023-03-08T00:13:16;55.5;52.3;56.6;;
78273;Laerm;67530;52.282;5.972;2023-03-08T00:13:36;55.6;53.3;56.7;;
78273;Laerm;67530;52.282;5.972;2023-03-08T00:13:56;56.1;53.7;57.2;;
78273;Laerm;67530;52.282;5.972;2023-03-08T00:14:16;56.3;54.6;57.5;;
78273;Laerm;67530;52.282;5.972;2023-03-08T00:14:36;56.3;54.3;57.2;;
78273;Laerm;67530;52.282;5.972;2023-03-08T00:14:56;54.7;52.1;57.1;;
78273;Laerm;67530;52.282;5.972;2023-03-08T00:15:16;56.4;53.3;57.5;;
78273;Laerm;67530;52.282;5.972;2023-03-08T00:15:36;56.5;53.3;57.4;;
78273;Laerm;67530;52.282;5.972;2023-03-08T00:15:57;56.5;53.8;57.7;;
78273;Laerm;67530;52.282;5.972;2023-03-08T00:16:16;56.5;54.6;57.5;;
78273;Laerm;67530;52.282;5.972;2023-03-08T00:16:36;56.2;52.8;57.3;;
78273;Laerm;67530;52.282;5.972;2023-03-08T00:16:56;56.3;54.1;58.3;;
78273;Laerm;67530;52.282;5.972;2023-03-08T00:17:17;56.3;54.5;58.1;;
78273;Laerm;67530;52.282;5.972;2023-03-08T00:17:37;56;53.1;57;;
78273;Laerm;67530;52.282;5.972;2023-03-08T00:17:56;55.6;53.5;57.1;;
78273;Laerm;67530;52.282;5.972;2023-03-08T00:18:17;55.7;52.9;56.9;;
78273;Laerm;67530;52.282;5.972;2023-03-08T00:18:37;56.2;52.6;57.3;;
78273;Laerm;67530;52.282;5.972;2023-03-08T00:18:57;55.5;51.6;56.7;;
78273;Laerm;67530;52.282;5.972;2023-03-08T00:19:37;55;51.7;56.4;;
78273;Laerm;67530;52.282;5.972;2023-03-08T00:19:57;54.9;51.9;56.4;;
78273;Laerm;67530;52.282;5.972;2023-03-08T00:20:17;55.1;51.6;56.4;;
78273;Laerm;67530;52.282;5.972;2023-03-08T00:20:37;55;52.1;56.6;;
78273;Laerm;67530;52.282;5.972;2023-03-08T00:20:58;55.2;52.8;56.5;;
78273;Laerm;67530;52.282;5.972;2023-03-08T00:21:17;55.1;50.7;56.5;;
78273;Laerm;67530;52.282;5.972;2023-03-08T00:21:37;55.2;52.7;56.3;;
78273;Laerm;67530;52.282;5.972;2023-03-08T00:21:57;55;51.6;56.4;;
78273;Laerm;67530;52.282;5.972;2023-03-08T00:22:17;55.1;52.8;56.5;;
78273;Laerm;67530;52.282;5.972;2023-03-08T00:22:38;55.1;51.8;56.3;;
78273;Laerm;67530;52.282;5.972;2023-03-08T00:22:57;55.1;52.4;56.4;;
78273;Laerm;67530;52.282;5.972;2023-03-08T00:23:17;55.1;51.8;56.4;;
78273;Laerm;67530;52.282;5.972;2023-03-08T00:23:38;55;52;56.1;;
78273;Laerm;67530;52.282;5.972;2023-03-08T00:23:57;55;52.6;56.3;;
78273;Laerm;67530;52.282;5.972;2023-03-08T00:24:18;54.9;52;56.3;;
78273;Laerm;67530;52.282;5.972;2023-03-08T00:24:38;55.1;52;56.7;;
78273;Laerm;67530;52.282;5.972;2023-03-08T00:24:58;55.1;52;56.6;;
78273;Laerm;67530;52.282;5.972;2023-03-08T00:25:18;55.1;51.4;56.3;;
78273;Laerm;67530;52.282;5.972;2023-03-08T00:25:38;55.1;51.8;56.3;;
78273;Laerm;67530;52.282;5.972;2023-03-08T00:25:58;55.1;51.8;56.2;;
78273;Laerm;67530;52.282;5.972;2023-03-08T00:26:18;55;52.2;55.9;;
78273;Laerm;67530;52.282;5.972;2023-03-08T00:26:38;54.9;52.1;56;;
78273;Laerm;67530;52.282;5.972;2023-03-08T00:26:58;54.9;52.4;56.1;;
78273;Laerm;67530;52.282;5.972;2023-03-08T00:27:18;54.6;51.2;55.9;;
78273;Laerm;67530;52.282;5.972;2023-03-08T00:27:38;54.5;51.5;55.9;;
78273;Laerm;67530;52.282;5.972;2023-03-08T00:27:58;54.4;51;55.7;;
78273;Laerm;67530;52.282;5.972;2023-03-08T00:28:18;54.4;51.3;55.4;;
78273;Laerm;67530;52.282;5.972;2023-03-08T00:28:39;54.2;51.2;55.3;;
78273;Laerm;67530;52.282;5.972;2023-03-08T00:28:58;54.3;52.5;55.4;;
78273;Laerm;67530;52.282;5.972;2023-03-08T00:29:18;54.2;51.4;55.5;;
78273;Laerm;67530;52.282;5.972;2023-03-08T00:29:39;54.3;51.9;55.6;;
78273;Laerm;67530;52.282;5.972;2023-03-08T00:29:59;54.2;51.7;55.3;;
78273;Laerm;67530;52.282;5.972;2023-03-08T00:30:19;54.2;51.6;55.3;;
78273;Laerm;67530;52.282;5.972;2023-03-08T00:30:39;54;49.9;55.4;;
78273;Laerm;67530;52.282;5.972;2023-03-08T00:30:59;54.3;51.8;55.6;;
78273;Laerm;67530;52.282;5.972;2023-03-08T00:31:19;54.2;51.6;55.3;;
78273;Laerm;67530;52.282;5.972;2023-03-08T00:31:40;54.4;51.5;55.4;;
78273;Laerm;67530;52.282;5.972;2023-03-08T00:31:59;54.3;52.2;55.5;;
78273;Laerm;67530;52.282;5.972;2023-03-08T00:32:19;54.1;51.3;55.4;;
78273;Laerm;67530;52.282;5.972;2023-03-08T00:32:39;54.4;52;55.4;;
78273;Laerm;67530;52.282;5.972;2023-03-08T00:32:59;54.4;52;55.6;;
78273;Laerm;67530;52.282;5.972;2023-03-08T00:33:19;54.3;51.4;55.6;;
78273;Laerm;67530;52.282;5.972;2023-03-08T00:33:39;54.4;51.7;55.5;;
78273;Laerm;67530;52.282;5.972;2023-03-08T00:33:59;54.3;51.4;55.6;;
78273;Laerm;67530;52.282;5.972;2023-03-08T00:34:19;54.3;51.5;55.5;;
78273;Laerm;67530;52.282;5.972;2023-03-08T00:34:39;54.3;50.4;55.5;;
78273;Laerm;67530;52.282;5.972;2023-03-08T00:34:59;54.3;51.3;55.6;;
78273;Laerm;67530;52.282;5.972;2023-03-08T00:35:20;54.3;51.4;55.3;;
78273;Laerm;67530;52.282;5.972;2023-03-08T00:35:40;54.2;51.7;55.4;;
78273;Laerm;67530;52.282;5.972;2023-03-08T00:36:00;54.2;51.1;55.5;;
78273;Laerm;67530;52.282;5.972;2023-03-08T00:36:20;54.5;50.7;55.8;;
78273;Laerm;67530;52.282;5.972;2023-03-08T00:36:40;54.3;50;55.6;;
78273;Laerm;67530;52.282;5.972;2023-03-08T00:37:00;54.4;51.6;55.4;;
78273;Laerm;67530;52.282;5.972;2023-03-08T00:37:20;54.3;51.1;55.5;;
78273;Laerm;67530;52.282;5.972;2023-03-08T00:37:40;54.2;51.6;55.5;;
78273;Laerm;67530;52.282;5.972;2023-03-08T00:38:00;54.3;51.3;55.5;;
78273;Laerm;67530;52.282;5.972;2023-03-08T00:38:20;54.2;51.2;55.6;;
78273;Laerm;67530;52.282;5.972;2023-03-08T00:38:40;54.3;51.1;55.6;;
78273;Laerm;67530;52.282;5.972;2023-03-08T00:39:00;54.2;51.5;55.4;;
78273;Laerm;67530;52.282;5.972;2023-03-08T00:39:20;54.3;52.1;55.4;;
78273;Laerm;67530;52.282;5.972;2023-03-08T00:39:40;54.3;52;55.4;;
78273;Laerm;67530;52.282;5.972;2023-03-08T00:40:00;54.3;50.8;55.5;;
78273;Laerm;67530;52.282;5.972;2023-03-08T00:40:20;54.2;51.6;55.4;;
78273;Laerm;67530;52.282;5.972;2023-03-08T00:40:41;54.1;51.4;55.2;;
78273;Laerm;67530;52.282;5.972;2023-03-08T00:41:01;54.1;51.7;55.3;;
78273;Laerm;67530;52.282;5.972;2023-03-08T00:41:21;54;51.9;55;;
78273;Laerm;67530;52.282;5.972;2023-03-08T00:41:41;54.1;50.6;55.3;;
78273;Laerm;67530;52.282;5.972;2023-03-08T00:42:01;54;51.3;55.3;;
78273;Laerm;67530;52.282;5.972;2023-03-08T00:42:21;54;50.9;55;;
78273;Laerm;67530;52.282;5.972;2023-03-08T00:42:41;54;51;55.3;;
78273;Laerm;67530;52.282;5.972;2023-03-08T00:43:01;53.9;50.7;55.2;;
78273;Laerm;67530;52.282;5.972;2023-03-08T00:43:21;54;51;55.3;;
78273;Laerm;67530;52.282;5.972;2023-03-08T00:43:41;54.1;50.9;55.3;;
78273;Laerm;67530;52.282;5.972;2023-03-08T00:44:01;54;51.7;55.1;;
78273;Laerm;67530;52.282;5.972;2023-03-08T00:44:21;54;51;55.2;;
78273;Laerm;67530;52.282;5.972;2023-03-08T00:44:41;54.1;51.3;55.2;;
78273;Laerm;67530;52.282;5.972;2023-03-08T00:45:01;54.2;51.6;55.3;;
78273;Laerm;67530;52.282;5.972;2023-03-08T00:45:21;54.1;50.8;55.2;;
78273;Laerm;67530;52.282;5.972;2023-03-08T00:45:41;54.1;50.7;55.2;;
78273;Laerm;67530;52.282;5.972;2023-03-08T00:46:01;54.1;50;55.2;;
78273;Laerm;67530;52.282;5.972;2023-03-08T00:46:22;54.2;51.5;55.3;;
78273;Laerm;67530;52.282;5.972;2023-03-08T00:46:42;54.1;50.4;55.5;;
78273;Laerm;67530;52.282;5.972;2023-03-08T00:47:02;54;50.4;55.4;;
78273;Laerm;67530;52.282;5.972;2023-03-08T00:47:22;54;51.4;55.3;;
78273;Laerm;67530;52.282;5.972;2023-03-08T00:47:42;54.1;51.6;55.3;;
78273;Laerm;67530;52.282;5.972;2023-03-08T00:48:02;54;50.3;55.1;;
78273;Laerm;67530;52.282;5.972;2023-03-08T00:48:22;54.2;51.1;55.4;;
78273;Laerm;67530;52.282;5.972;2023-03-08T00:48:42;54.1;51.1;55.3;;
78273;Laerm;67530;52.282;5.972;2023-03-08T00:49:02;54.1;51.9;55.2;;
78273;Laerm;67530;52.282;5.972;2023-03-08T00:49:22;54.1;51;55.4;;
78273;Laerm;67530;52.282;5.972;2023-03-08T00:49:42;54.1;51.3;55.2;;
78273;Laerm;67530;52.282;5.972;2023-03-08T00:50:02;54.1;51.3;55.3;;
78273;Laerm;67530;52.282;5.972;2023-03-08T00:50:22;54.1;51;55.2;;
78273;Laerm;67530;52.282;5.972;2023-03-08T00:50:42;54.1;50.5;55;;
78273;Laerm;67530;52.282;5.972;2023-03-08T00:51:03;54.2;51.7;55.4;;
78273;Laerm;67530;52.282;5.972;2023-03-08T00:51:22;54.1;50.8;55.1;;
78273;Laerm;67530;52.282;5.972;2023-03-08T00:51:43;54.2;51.2;55.1;;
78273;Laerm;67530;52.282;5.972;2023-03-08T00:52:03;54.1;51.1;55.3;;
78273;Laerm;67530;52.282;5.972;2023-03-08T00:52:28;54;50.7;55.2;;
78273;Laerm;67530;52.282;5.972;2023-03-08T00:52:43;54.2;51;55.2;;
78273;Laerm;67530;52.282;5.972;2023-03-08T00:53:03;54.3;51.2;55.3;;
78273;Laerm;67530;52.282;5.972;2023-03-08T00:53:37;54.2;50.7;55.2;;
78273;Laerm;67530;52.282;5.972;2023-03-08T00:53:43;54.3;51.6;55.4;;
78273;Laerm;67530;52.282;5.972;2023-03-08T00:54:03;54.3;51.8;55.7;;
78273;Laerm;67530;52.282;5.972;2023-03-08T00:54:23;54.3;52;55.3;;
78273;Laerm;67530;52.282;5.972;2023-03-08T00:54:43;54.4;51.7;55.5;;
78273;Laerm;67530;52.282;5.972;2023-03-08T00:55:38;54.5;51;55.7;;
78273;Laerm;67530;52.282;5.972;2023-03-08T00:55:38;54.5;52.4;55.6;;
78273;Laerm;67530;52.282;5.972;2023-03-08T00:55:51;54.4;50.8;55.5;;
78273;Laerm;67530;52.282;5.972;2023-03-08T00:56:03;54.5;51;55.6;;
78273;Laerm;67530;52.282;5.972;2023-03-08T00:56:23;54.5;51.5;55.9;;
78273;Laerm;67530;52.282;5.972;2023-03-08T00:56:43;54.5;51.8;55.8;;
78273;Laerm;67530;52.282;5.972;2023-03-08T00:57:03;54.5;52;55.7;;
78273;Laerm;67530;52.282;5.972;2023-03-08T00:57:24;54.5;50.8;55.7;;
78273;Laerm;67530;52.282;5.972;2023-03-08T00:57:44;54.6;51.4;55.7;;
78273;Laerm;67530;52.282;5.972;2023-03-08T00:58:04;54.6;51.9;55.7;;
78273;Laerm;67530;52.282;5.972;2023-03-08T00:58:24;54.6;51;55.9;;
78273;Laerm;67530;52.282;5.972;2023-03-08T00:58:44;54.7;50.8;55.8;;
78273;Laerm;67530;52.282;5.972;2023-03-08T00:59:16;54.7;51.6;55.8;;
78273;Laerm;67530;52.282;5.972;2023-03-08T00:59:36;54.9;51.8;56;;
78273;Laerm;67530;52.282;5.972;2023-03-08T00:59:44;54.8;50.8;55.9;;
78273;Laerm;67530;52.282;5.972;2023-03-08T01:00:04;54.9;51.7;56.2;;
78273;Laerm;67530;52.282;5.972;2023-03-08T01:00:24;54.9;51.5;56.2;;
78273;Laerm;67530;52.282;5.972;2023-03-08T01:00:44;55;52.2;56.2;;
78273;Laerm;67530;52.282;5.972;2023-03-08T01:01:04;55.2;52.6;56.3;;
78273;Laerm;67530;52.282;5.972;2023-03-08T01:01:24;55.1;52.9;56.5;;
78273;Laerm;67530;52.282;5.972;2023-03-08T01:01:44;55.1;52.6;56.5;;
78273;Laerm;67530;52.282;5.972;2023-03-08T01:02:04;55.2;51.9;56.6;;
78273;Laerm;67530;52.282;5.972;2023-03-08T01:02:24;55.2;52.8;56.8;;
78273;Laerm;67530;52.282;5.972;2023-03-08T01:02:45;55;52;56.3;;
78273;Laerm;67530;52.282;5.972;2023-03-08T01:03:05;55;51.3;56.6;;
78273;Laerm;67530;52.282;5.972;2023-03-08T01:03:25;55.2;52.5;56.4;;
78273;Laerm;67530;52.282;5.972;2023-03-08T01:03:45;55.1;51.9;56.6;;
78273;Laerm;67530;52.282;5.972;2023-03-08T01:04:05;55.2;53.3;56.5;;
78273;Laerm;67530;52.282;5.972;2023-03-08T01:04:25;55.3;52.4;56.4;;
78273;Laerm;67530;52.282;5.972;2023-03-08T01:04:45;55.3;50.7;56.4;;
78273;Laerm;67530;52.282;5.972;2023-03-08T01:05:05;55.2;51.9;56.3;;
78273;Laerm;67530;52.282;5.972;2023-03-08T01:05:38;55;52;56.3;;
78273;Laerm;67530;52.282;5.972;2023-03-08T01:05:46;55.1;51.9;56.4;;
78273;Laerm;67530;52.282;5.972;2023-03-08T01:06:06;55.1;51.5;56.5;;
78273;Laerm;67530;52.282;5.972;2023-03-08T01:06:37;55.2;52;56.3;;
78273;Laerm;67530;52.282;5.972;2023-03-08T01:06:45;55.1;51.6;56.2;;
78273;Laerm;67530;52.282;5.972;2023-03-08T01:07:35;55.3;52.8;56.3;;
78273;Laerm;67530;52.282;5.972;2023-03-08T01:07:35;55.1;52;56.4;;
78273;Laerm;67530;52.282;5.972;2023-03-08T01:07:45;55.1;52.7;56.4;;
78273;Laerm;67530;52.282;5.972;2023-03-08T01:08:05;54.8;50.3;56.3;;
78273;Laerm;67530;52.282;5.972;2023-03-08T01:08:26;55;52.8;56;;
78273;Laerm;67530;52.282;5.972;2023-03-08T01:08:46;55;52.3;56.2;;
78273;Laerm;67530;52.282;5.972;2023-03-08T01:09:06;54.8;50.7;55.9;;
78273;Laerm;67530;52.282;5.972;2023-03-08T01:09:26;54.8;51.7;56.1;;
78273;Laerm;67530;52.282;5.972;2023-03-08T01:09:46;55;52.4;56.1;;
78273;Laerm;67530;52.282;5.972;2023-03-08T01:10:06;55;52.8;56.3;;
78273;Laerm;67530;52.282;5.972;2023-03-08T01:10:26;55;52.5;56;;
78273;Laerm;67530;52.282;5.972;2023-03-08T01:10:46;55;51.7;56.1;;
78273;Laerm;67530;52.282;5.972;2023-03-08T01:11:06;54.9;51.7;56.1;;
78273;Laerm;67530;52.282;5.972;2023-03-08T01:11:26;55;52.8;56.2;;
78273;Laerm;67530;52.282;5.972;2023-03-08T01:11:46;55;51.6;56.4;;
78273;Laerm;67530;52.282;5.972;2023-03-08T01:12:06;55.1;52.4;56.1;;
78273;Laerm;67530;52.282;5.972;2023-03-08T01:12:26;55;51.6;56.3;;
78273;Laerm;67530;52.282;5.972;2023-03-08T01:12:46;55;52.2;56.1;;
78273;Laerm;67530;52.282;5.972;2023-03-08T01:13:07;54.8;51.9;56;;
78273;Laerm;67530;52.282;5.972;2023-03-08T01:13:28;54.5;52.3;55.8;;
78273;Laerm;67530;52.282;5.972;2023-03-08T01:13:47;54.7;51.3;56.1;;
78273;Laerm;67530;52.282;5.972;2023-03-08T01:14:07;54.8;52.2;56;;
78273;Laerm;67530;52.282;5.972;2023-03-08T01:14:27;54.9;52.6;55.9;;
78273;Laerm;67530;52.282;5.972;2023-03-08T01:14:47;54.9;52.4;56.1;;
78273;Laerm;67530;52.282;5.972;2023-03-08T01:15:07;55;52.4;56.5;;
78273;Laerm;67530;52.282;5.972;2023-03-08T01:15:27;55;52.6;56.4;;
78273;Laerm;67530;52.282;5.972;2023-03-08T01:15:47;54.8;52;56.1;;
78273;Laerm;67530;52.282;5.972;2023-03-08T01:16:13;54.9;51;56.4;;
78273;Laerm;67530;52.282;5.972;2023-03-08T01:16:28;54.8;52.1;56.3;;
78273;Laerm;67530;52.282;5.972;2023-03-08T01:16:47;54.9;50.7;56.1;;
78273;Laerm;67530;52.282;5.972;2023-03-08T01:17:07;54.8;52.1;55.9;;
78273;Laerm;67530;52.282;5.972;2023-03-08T01:17:27;54.7;51.8;55.9;;
78273;Laerm;67530;52.282;5.972;2023-03-08T01:17:47;54.6;49.9;55.7;;
78273;Laerm;67530;52.282;5.972;2023-03-08T01:18:07;54.6;51.1;55.9;;
78273;Laerm;67530;52.282;5.972;2023-03-08T01:18:27;54.5;50.5;55.8;;
78273;Laerm;67530;52.282;5.972;2023-03-08T01:18:47;54.3;51.5;55.6;;
78273;Laerm;67530;52.282;5.972;2023-03-08T01:19:08;54.4;52.2;55.4;;
78273;Laerm;67530;52.282;5.972;2023-03-08T01:19:28;54.3;52.3;55.6;;
78273;Laerm;67530;52.282;5.972;2023-03-08T01:19:48;54.3;51.6;55.5;;
78273;Laerm;67530;52.282;5.972;2023-03-08T01:20:08;54.1;50.8;55.7;;
78273;Laerm;67530;52.282;5.972;2023-03-08T01:20:28;54;51.4;55.3;;
78273;Laerm;67530;52.282;5.972;2023-03-08T01:20:53;54.1;51;55.2;;
78273;Laerm;67530;52.282;5.972;2023-03-08T01:21:08;54;51.5;55.4;;
78273;Laerm;67530;52.282;5.972;2023-03-08T01:21:29;53.9;50.8;54.9;;
78273;Laerm;67530;52.282;5.972;2023-03-08T01:21:48;53.8;50.2;55;;
78273;Laerm;67530;52.282;5.972;2023-03-08T01:22:08;53.7;50.2;55;;
78273;Laerm;67530;52.282;5.972;2023-03-08T01:22:28;53.7;50.8;55;;
78273;Laerm;67530;52.282;5.972;2023-03-08T01:22:48;53.4;49.6;54.9;;
78273;Laerm;67530;52.282;5.972;2023-03-08T01:23:08;53.3;51;54.8;;
78273;Laerm;67530;52.282;5.972;2023-03-08T01:23:29;53.3;49.5;54.7;;
78273;Laerm;67530;52.282;5.972;2023-03-08T01:23:49;53.1;49.5;54.6;;
78273;Laerm;67530;52.282;5.972;2023-03-08T01:24:08;53;49.4;54.3;;
78273;Laerm;67530;52.282;5.972;2023-03-08T01:24:28;53.1;50;54.5;;
78273;Laerm;67530;52.282;5.972;2023-03-08T01:24:49;53.2;50.3;54.5;;
78273;Laerm;67530;52.282;5.972;2023-03-08T01:25:08;53.4;48.3;54.4;;
78273;Laerm;67530;52.282;5.972;2023-03-08T01:25:29;53.3;50.7;54.4;;
78273;Laerm;67530;52.282;5.972;2023-03-08T01:25:56;53.3;50.4;54.2;;
78273;Laerm;67530;52.282;5.972;2023-03-08T01:26:10;53.3;49.9;54.6;;
78273;Laerm;67530;52.282;5.972;2023-03-08T01:26:49;53.2;50.2;54.3;;
78273;Laerm;67530;52.282;5.972;2023-03-08T01:27:09;53.2;49.8;54.5;;
78273;Laerm;67530;52.282;5.972;2023-03-08T01:27:29;53.2;51.1;54.5;;
78273;Laerm;67530;52.282;5.972;2023-03-08T01:27:49;53.1;49.6;54.3;;
78273;Laerm;67530;52.282;5.972;2023-03-08T01:28:09;53.1;50.4;54.3;;
78273;Laerm;67530;52.282;5.972;2023-03-08T01:28:29;53.2;50.2;54.3;;
78273;Laerm;67530;52.282;5.972;2023-03-08T01:28:49;53.2;50.6;54.3;;
78273;Laerm;67530;52.282;5.972;2023-03-08T01:29:09;53.2;49.5;54.3;;
78273;Laerm;67530;52.282;5.972;2023-03-08T01:29:29;53.1;50.2;54.2;;
78273;Laerm;67530;52.282;5.972;2023-03-08T01:29:49;53;51;54;;
78273;Laerm;67530;52.282;5.972;2023-03-08T01:30:10;52.9;51.1;54.1;;
78273;Laerm;67530;52.282;5.972;2023-03-08T01:30:29;52.9;50.5;53.9;;
78273;Laerm;67530;52.282;5.972;2023-03-08T01:30:50;52.9;50.8;53.7;;
78273;Laerm;67530;52.282;5.972;2023-03-08T01:31:10;52.8;50.2;53.8;;
78273;Laerm;67530;52.282;5.972;2023-03-08T01:31:30;52.8;50.9;53.9;;
78273;Laerm;67530;52.282;5.972;2023-03-08T01:31:50;52.7;50.4;53.7;;
78273;Laerm;67530;52.282;5.972;2023-03-08T01:32:10;52.6;50.2;53.8;;
78273;Laerm;67530;52.282;5.972;2023-03-08T01:32:30;52.7;50.2;53.6;;
78273;Laerm;67530;52.282;5.972;2023-03-08T01:32:50;52.7;48.9;53.8;;
78273;Laerm;67530;52.282;5.972;2023-03-08T01:33:10;52.5;49.9;53.6;;
78273;Laerm;67530;52.282;5.972;2023-03-08T01:33:30;52.6;50.2;53.7;;
78273;Laerm;67530;52.282;5.972;2023-03-08T01:33:50;52.7;49.2;53.9;;
78273;Laerm;67530;52.282;5.972;2023-03-08T01:34:10;52.8;50.5;53.8;;
78273;Laerm;67530;52.282;5.972;2023-03-08T01:34:30;52.9;51.3;53.8;;
78273;Laerm;67530;52.282;5.972;2023-03-08T01:34:50;52.8;51.2;53.7;;
78273;Laerm;67530;52.282;5.972;2023-03-08T01:35:10;52.9;50.4;53.9;;
78273;Laerm;67530;52.282;5.972;2023-03-08T01:35:30;53;50.6;53.9;;
78273;Laerm;67530;52.282;5.972;2023-03-08T01:35:50;52.9;50.8;53.9;;
78273;Laerm;67530;52.282;5.972;2023-03-08T01:36:11;52.9;50;54.1;;
78273;Laerm;67530;52.282;5.972;2023-03-08T01:36:31;52.7;50.2;53.8;;
78273;Laerm;67530;52.282;5.972;2023-03-08T01:36:51;52.7;49.3;53.7;;
78273;Laerm;67530;52.282;5.972;2023-03-08T01:37:11;52.6;49.5;54;;
78273;Laerm;67530;52.282;5.972;2023-03-08T01:37:31;52.6;50.3;53.6;;
78273;Laerm;67530;52.282;5.972;2023-03-08T01:37:51;52.6;49.8;53.7;;
78273;Laerm;67530;52.282;5.972;2023-03-08T01:38:11;52.4;49.7;53.5;;
78273;Laerm;67530;52.282;5.972;2023-03-08T01:38:31;52.3;49.6;53.5;;
78273;Laerm;67530;52.282;5.972;2023-03-08T01:38:51;52.3;48.2;53.5;;
78273;Laerm;67530;52.282;5.972;2023-03-08T01:39:11;52.2;48;53.6;;
78273;Laerm;67530;52.282;5.972;2023-03-08T01:39:31;52.2;48.4;53.5;;
78273;Laerm;67530;52.282;5.972;2023-03-08T01:39:51;52.2;48.1;53.4;;
78273;Laerm;67530;52.282;5.972;2023-03-08T01:40:12;52.4;49.8;53.5;;
78273;Laerm;67530;52.282;5.972;2023-03-08T01:40:31;52.3;49.6;53.6;;
78273;Laerm;67530;52.282;5.972;2023-03-08T01:40:54;52.2;49.3;53.4;;
78273;Laerm;67530;52.282;5.972;2023-03-08T01:41:12;52.2;49.2;53.6;;
78273;Laerm;67530;52.282;5.972;2023-03-08T01:41:32;52.2;49;53.4;;
78273;Laerm;67530;52.282;5.972;2023-03-08T01:41:52;52.2;48.8;53.3;;
78273;Laerm;67530;52.282;5.972;2023-03-08T01:42:12;52.2;49.5;53.3;;
78273;Laerm;67530;52.282;5.972;2023-03-08T01:42:32;52.2;47.7;53.2;;
78273;Laerm;67530;52.282;5.972;2023-03-08T01:42:52;52.1;49.5;53.1;;
78273;Laerm;67530;52.282;5.972;2023-03-08T01:43:20;52.3;50.7;53.2;;
78273;Laerm;67530;52.282;5.972;2023-03-08T01:43:33;52.2;49.6;53.3;;
78273;Laerm;67530;52.282;5.972;2023-03-08T01:43:52;52.1;49.7;53.3;;
78273;Laerm;67530;52.282;5.972;2023-03-08T01:44:13;52.1;49.1;53.3;;
78273;Laerm;67530;52.282;5.972;2023-03-08T01:44:47;52.1;49.9;53;;
78273;Laerm;67530;52.282;5.972;2023-03-08T01:44:52;52.1;49.9;53.4;;
78273;Laerm;67530;52.282;5.972;2023-03-08T01:46:06;52;48.8;53.1;;
78273;Laerm;67530;52.282;5.972;2023-03-08T01:46:15;51.6;48.5;52.9;;
78273;Laerm;67530;52.282;5.972;2023-03-08T01:46:19;52;48.5;53.1;;
78273;Laerm;67530;52.282;5.972;2023-03-08T01:46:25;51.8;48.8;52.9;;
78273;Laerm;67530;52.282;5.972;2023-03-08T01:46:33;51.6;49.2;52.7;;
78273;Laerm;67530;52.282;5.972;2023-03-08T01:46:52;51.6;47.8;52.8;;
78273;Laerm;67530;52.282;5.972;2023-03-08T01:47:13;51.5;49.4;52.8;;
78273;Laerm;67530;52.282;5.972;2023-03-08T01:47:33;51.2;46.5;52.8;;
78273;Laerm;67530;52.282;5.972;2023-03-08T01:47:53;51.5;47.2;52.9;;
78273;Laerm;67530;52.282;5.972;2023-03-08T01:48:13;51.4;48.2;52.8;;
78273;Laerm;67530;52.282;5.972;2023-03-08T01:48:34;51.3;48.1;52.6;;
78273;Laerm;67530;52.282;5.972;2023-03-08T01:48:54;51.5;47.9;52.8;;
78273;Laerm;67530;52.282;5.972;2023-03-08T01:49:13;51.8;48.4;54.2;;
78273;Laerm;67530;52.282;5.972;2023-03-08T01:49:33;51.4;47.8;52.7;;
78273;Laerm;67530;52.282;5.972;2023-03-08T01:49:53;51.1;47.3;52.7;;
78273;Laerm;67530;52.282;5.972;2023-03-08T01:50:13;51.4;48;52.6;;
78273;Laerm;67530;52.282;5.972;2023-03-08T01:50:33;51.2;47.7;52.6;;
78273;Laerm;67530;52.282;5.972;2023-03-08T01:50:53;50.9;48.3;52.5;;
78273;Laerm;67530;52.282;5.972;2023-03-08T01:51:14;50.9;47.3;52.7;;
78273;Laerm;67530;52.282;5.972;2023-03-08T01:51:34;51.1;48.4;52.4;;
78273;Laerm;67530;52.282;5.972;2023-03-08T01:51:54;51.2;47.2;52.6;;
78273;Laerm;67530;52.282;5.972;2023-03-08T01:52:14;51.3;47.1;52.7;;
78273;Laerm;67530;52.282;5.972;2023-03-08T01:52:40;51.4;48.2;52.9;;
78273;Laerm;67530;52.282;5.972;2023-03-08T01:52:54;51.5;48.2;52.7;;
78273;Laerm;67530;52.282;5.972;2023-03-08T01:53:14;51.6;47.5;53;;
78273;Laerm;67530;52.282;5.972;2023-03-08T01:53:34;51.7;47.5;52.8;;
78273;Laerm;67530;52.282;5.972;2023-03-08T01:53:54;51.6;47;52.6;;
78273;Laerm;67530;52.282;5.972;2023-03-08T01:54:15;51.9;48.5;52.8;;
78273;Laerm;67530;52.282;5.972;2023-03-08T01:54:35;51.9;48.8;53.2;;
78273;Laerm;67530;52.282;5.972;2023-03-08T01:54:55;51.7;49.3;52.8;;
78273;Laerm;67530;52.282;5.972;2023-03-08T01:55:14;51.7;48.9;52.9;;
78273;Laerm;67530;52.282;5.972;2023-03-08T01:55:34;51.7;48.3;53.2;;
78273;Laerm;67530;52.282;5.972;2023-03-08T01:55:54;51.6;48;52.8;;
78273;Laerm;67530;52.282;5.972;2023-03-08T01:56:14;51.7;49.2;53.1;;
78273;Laerm;67530;52.282;5.972;2023-03-08T01:56:34;51.5;48.1;52.6;;
78273;Laerm;67530;52.282;5.972;2023-03-08T01:56:56;51.4;48.1;52.5;;
78273;Laerm;67530;52.282;5.972;2023-03-08T01:57:15;51.2;48;52.8;;
78273;Laerm;67530;52.282;5.972;2023-03-08T01:57:35;51.1;47.8;52.5;;
78273;Laerm;67530;52.282;5.972;2023-03-08T01:57:54;51;46;52.5;;
78273;Laerm;67530;52.282;5.972;2023-03-08T01:58:37;51.2;48.1;52.7;;
78273;Laerm;67530;52.282;5.972;2023-03-08T01:58:37;51.2;47.9;52.8;;
78273;Laerm;67530;52.282;5.972;2023-03-08T01:58:55;51.2;48.4;52.5;;